createdAt,value
2022-11-19T00:01:15.703Z,100367.66
2022-11-19T00:03:45.659Z,100361.47
2022-11-19T00:06:18.061Z,100369.88
2022-11-19T00:08:45.821Z,100363.88
2022-11-19T00:11:44.628Z,100364.59
2022-11-19T00:14:13.429Z,100367.91
2022-11-19T00:16:40.446Z,100370.31
2022-11-19T00:19:07.180Z,100374.50
2022-11-19T00:21:34.021Z,100372.69
2022-11-19T00:24:00.549Z,100375.22
2022-11-19T00:26:27.639Z,100367.34
2022-11-19T00:28:55.239Z,100382.72
2022-11-19T00:31:21.846Z,100379.97
2022-11-19T00:33:50.587Z,100379.84
2022-11-19T00:36:17.664Z,100380.66
2022-11-19T00:38:44.245Z,100383.97
2022-11-19T00:41:11.595Z,100379.59
2022-11-19T00:43:47.149Z,100389.97
2022-11-19T00:46:25.173Z,100388.06
2022-11-19T00:48:54.116Z,100384.47
2022-11-19T00:51:22.340Z,100396.44
2022-11-19T00:53:49.315Z,100392.00
2022-11-19T00:56:18.242Z,100388.59
2022-11-19T00:58:46.019Z,100390.19
2022-11-19T01:01:14.372Z,100392.59
2022-11-19T01:03:42.404Z,100394.28
2022-11-19T01:06:09.876Z,100396.72
2022-11-19T01:08:37.406Z,100400.00
2022-11-19T01:11:15.208Z,100398.22
2022-11-19T01:13:42.624Z,100402.41
2022-11-19T01:16:13.376Z,100410.19
2022-11-19T01:18:41.512Z,100406.59
2022-11-19T01:21:10.789Z,100408.19
2022-11-19T01:23:39.205Z,100413.38
2022-11-19T01:26:06.224Z,100408.09
2022-11-19T01:28:32.849Z,100413.19
2022-11-19T01:30:59.771Z,100410.59
2022-11-19T01:33:26.505Z,100409.63
2022-11-19T01:36:01.317Z,100415.50
2022-11-19T01:38:29.180Z,100413.72
2022-11-19T01:40:56.745Z,100423.97
2022-11-19T01:43:43.895Z,100427.47
2022-11-19T01:46:13.173Z,100423.91
2022-11-19T01:49:06.299Z,100427.34
2022-11-19T01:51:38.507Z,100427.19
2022-11-19T01:54:12.768Z,100427.19
2022-11-19T01:56:39.665Z,100423.59
2022-11-19T01:59:11.253Z,100422.81
2022-11-19T02:01:37.883Z,100425.31
2022-11-19T02:04:06.309Z,100426.09
2022-11-19T02:06:33.961Z,100424.19
2022-11-19T02:09:00.698Z,100426.78
2022-11-19T02:12:05.723Z,100424.00
2022-11-19T02:14:35.160Z,100429.19
2022-11-19T02:17:33.372Z,100427.50
2022-11-19T02:20:28.732Z,100422.34
2022-11-19T02:23:13.268Z,100425.63
2022-11-19T02:25:58.561Z,100422.03
2022-11-19T02:28:40.712Z,100432.38
2022-11-19T02:31:21.914Z,100425.34
2022-11-19T02:34:01.343Z,100431.22
2022-11-19T02:36:50.182Z,100436.38
2022-11-19T02:39:35.391Z,100434.41
2022-11-19T02:42:10.576Z,100435.03
2022-11-19T02:44:58.807Z,100440.81
2022-11-19T02:47:34.179Z,100444.06
2022-11-19T02:50:10.962Z,100442.22
2022-11-19T02:52:43.870Z,100443.81
2022-11-19T02:55:18.933Z,100447.06
2022-11-19T02:57:57.611Z,100447.75
2022-11-19T03:00:43.453Z,100457.16
2022-11-19T03:03:35.611Z,100459.59
2022-11-19T03:06:11.854Z,100459.53
2022-11-19T03:08:39.064Z,100459.34
2022-11-19T03:11:26.569Z,100456.66
2022-11-19T03:14:20.977Z,100454.75
2022-11-19T03:16:58.605Z,100451.06
2022-11-19T03:19:36.671Z,100454.47
2022-11-19T03:22:10.050Z,100455.06
2022-11-19T03:24:41.879Z,100456.75
2022-11-19T03:27:16.196Z,100461.72
2022-11-19T03:29:50.571Z,100461.53
2022-11-19T03:32:22.639Z,100465.72
2022-11-19T03:34:56.344Z,100461.22
2022-11-19T03:37:25.357Z,100468.78
2022-11-19T03:39:53.955Z,100472.16
2022-11-19T03:42:22.180Z,100471.06
2022-11-19T03:44:54.542Z,100469.97
2022-11-19T03:47:37.089Z,100478.44
2022-11-19T03:50:18.962Z,100486.06
2022-11-19T03:52:45.611Z,100489.56
2022-11-19T03:55:12.639Z,100486.88
2022-11-19T03:57:39.672Z,100492.03
2022-11-19T04:00:06.722Z,100499.69
2022-11-19T04:02:40.025Z,100501.38
2022-11-19T04:05:06.959Z,100503.97
2022-11-19T04:07:33.871Z,100504.88
2022-11-19T04:10:00.570Z,100502.06
2022-11-19T04:12:27.104Z,100507.13
2022-11-19T04:14:53.781Z,100507.84
2022-11-19T04:17:20.737Z,100505.94
2022-11-19T04:19:47.548Z,100504.03
2022-11-19T04:22:14.062Z,100505.75
2022-11-19T04:24:40.624Z,100502.25
2022-11-19T04:27:07.193Z,100498.66
2022-11-19T04:29:33.780Z,100498.66
2022-11-19T04:32:00.364Z,100496.91
2022-11-19T04:34:27.016Z,100489.91
2022-11-19T04:36:53.886Z,100492.41
2022-11-19T04:39:20.973Z,100496.66
2022-11-19T04:41:47.818Z,100497.56
2022-11-19T04:44:14.376Z,100500.97
2022-11-19T04:46:40.941Z,100493.06
2022-11-19T04:49:07.473Z,100498.25
2022-11-19T04:51:34.123Z,100499.06
2022-11-19T04:54:00.958Z,100493.06
2022-11-19T04:56:27.801Z,100498.25
2022-11-19T04:58:54.374Z,100485.22
2022-11-19T05:01:21.220Z,100486.13
2022-11-19T05:03:48.475Z,100487.03
2022-11-19T05:06:15.066Z,100483.56
2022-11-19T05:08:41.770Z,100485.13
2022-11-19T05:11:08.516Z,100484.44
2022-11-19T05:13:35.234Z,100484.44
2022-11-19T05:16:02.058Z,100477.56
2022-11-19T05:18:28.660Z,100474.13
2022-11-19T05:20:55.371Z,100487.91
2022-11-19T05:23:22.411Z,100481.06
2022-11-19T05:25:49.291Z,100494.06
2022-11-19T05:28:15.878Z,100491.50
2022-11-19T05:30:42.615Z,100493.31
2022-11-19T05:33:09.288Z,100500.97
2022-11-19T05:35:35.890Z,100496.66
2022-11-19T05:38:02.776Z,100502.75
2022-11-19T05:40:29.415Z,100507.81
2022-11-19T05:42:56.095Z,100513.75
2022-11-19T05:45:23.480Z,100502.44
2022-11-19T05:47:54.888Z,100504.81
2022-11-19T05:50:21.409Z,100506.38
2022-11-19T05:52:50.522Z,100502.78
2022-11-19T05:55:17.516Z,100505.38
2022-11-19T05:57:44.209Z,100508.66
2022-11-19T06:00:11.820Z,100514.75
2022-11-19T06:02:41.390Z,100517.31
2022-11-19T06:05:08.405Z,100525.06
2022-11-19T06:07:35.096Z,100530.25
2022-11-19T06:10:05.323Z,100527.66
2022-11-19T06:12:31.910Z,100533.13
2022-11-19T06:14:59.273Z,100532.22
2022-11-19T06:17:25.854Z,100521.09
2022-11-19T06:19:52.479Z,100531.53
2022-11-19T06:22:19.246Z,100535.13
2022-11-19T06:24:45.946Z,100529.06
2022-11-19T06:27:12.695Z,100536.03
2022-11-19T06:29:39.196Z,100542.97
2022-11-19T06:32:05.878Z,100540.50
2022-11-19T06:34:32.443Z,100538.81
2022-11-19T06:36:59.096Z,100538.00
2022-11-19T06:39:25.768Z,100534.66
2022-11-19T06:41:52.413Z,100543.41
2022-11-19T06:44:19.285Z,100550.25
2022-11-19T06:46:46.405Z,100546.75
2022-11-19T06:49:18.411Z,100546.75
2022-11-19T06:51:47.585Z,100550.16
2022-11-19T06:54:14.163Z,100557.91
2022-11-19T06:56:40.937Z,100549.34
2022-11-19T06:59:07.502Z,100557.34
2022-11-19T07:01:34.320Z,100555.63
2022-11-19T07:04:01.256Z,100554.84
2022-11-19T07:06:27.768Z,100560.13
2022-11-19T07:08:54.291Z,100564.47
2022-11-19T07:11:26.825Z,100566.28
2022-11-19T07:13:58.016Z,100567.16
2022-11-19T07:16:33.405Z,100573.34
2022-11-19T07:19:02.852Z,100567.38
2022-11-19T07:21:30.093Z,100571.75
2022-11-19T07:23:58.210Z,100574.44
2022-11-19T07:26:25.559Z,100575.44
2022-11-19T07:28:52.875Z,100576.44
2022-11-19T07:31:24.514Z,100585.22
2022-11-19T07:33:51.074Z,100582.81
2022-11-19T07:36:18.675Z,100579.47
2022-11-19T07:38:46.346Z,100574.72
2022-11-19T07:41:32.678Z,100568.81
2022-11-19T07:43:59.264Z,100571.50
2022-11-19T07:46:25.908Z,100569.16
2022-11-19T07:48:56.879Z,100585.88
2022-11-19T07:51:26.766Z,100586.06
2022-11-19T07:53:57.712Z,100575.03
2022-11-19T07:56:25.034Z,100570.94
2022-11-19T07:58:52.438Z,100578.22
2022-11-19T08:01:24.142Z,100579.22
2022-11-19T08:03:56.375Z,100583.91
2022-11-19T08:06:26.068Z,100587.47
2022-11-19T08:08:55.032Z,100585.19
2022-11-19T08:11:22.161Z,100581.13
2022-11-19T08:13:49.106Z,100577.94
2022-11-19T08:16:35.980Z,100579.94
2022-11-19T08:19:04.382Z,100572.38
2022-11-19T08:21:31.079Z,100567.47
2022-11-19T08:23:57.994Z,100559.03
2022-11-19T08:26:24.839Z,100565.28
2022-11-19T08:28:51.714Z,100564.78
2022-11-19T08:31:18.430Z,100565.97
2022-11-19T08:33:46.589Z,100573.16
2022-11-19T08:36:15.853Z,100571.75
2022-11-19T08:38:42.519Z,100563.38
2022-11-19T08:41:27.783Z,100561.19
2022-11-19T08:43:54.806Z,100558.19
2022-11-19T08:46:21.488Z,100551.50
2022-11-19T08:48:48.128Z,100551.00
2022-11-19T08:51:16.549Z,100553.16
2022-11-19T08:53:43.640Z,100549.97
2022-11-19T08:56:14.024Z,100550.31
2022-11-19T08:58:45.445Z,100555.09
2022-11-19T09:01:14.075Z,100557.16
2022-11-19T09:03:41.225Z,100557.53
2022-11-19T09:06:08.321Z,100555.44
2022-11-19T09:08:35.810Z,100560.97
2022-11-19T09:11:14.288Z,100556.16
2022-11-19T09:13:41.934Z,100557.31
2022-11-19T09:16:09.958Z,100560.22
2022-11-19T09:18:39.253Z,100556.28
2022-11-19T09:21:07.803Z,100555.84
2022-11-19T09:23:34.330Z,100551.94
2022-11-19T09:26:03.619Z,100549.59
2022-11-19T09:28:31.308Z,100556.06
2022-11-19T09:31:02.195Z,100560.72
2022-11-19T09:33:34.444Z,100570.63
2022-11-19T09:36:01.443Z,100563.09
2022-11-19T09:38:28.097Z,100568.75
2022-11-19T09:40:56.806Z,100567.31
2022-11-19T09:43:49.202Z,100559.81
2022-11-19T09:46:36.847Z,100557.63
2022-11-19T09:49:11.876Z,100553.78
2022-11-19T09:51:42.675Z,100554.38
2022-11-19T09:54:18.973Z,100550.44
2022-11-19T09:56:47.609Z,100543.81
2022-11-19T09:59:27.300Z,100547.53
2022-11-19T10:01:56.638Z,100545.09
2022-11-19T10:04:26.140Z,100552.34
2022-11-19T10:07:01.819Z,100544.00
2022-11-19T10:09:44.639Z,100540.94
2022-11-19T10:12:20.675Z,100542.09
2022-11-19T10:15:11.008Z,100539.66
2022-11-19T10:18:02.458Z,100555.41
2022-11-19T10:20:50.761Z,100545.00
2022-11-19T10:23:20.623Z,100538.19
2022-11-19T10:25:50.341Z,100539.25
2022-11-19T10:28:25.648Z,100542.19
2022-11-19T10:30:55.796Z,100548.59
2022-11-19T10:33:32.682Z,100553.81
2022-11-19T10:36:06.879Z,100554.94
2022-11-19T10:38:40.572Z,100557.06
2022-11-19T10:41:23.391Z,100552.13
2022-11-19T10:43:59.752Z,100553.31
2022-11-19T10:46:28.617Z,100548.47
2022-11-19T10:48:58.394Z,100548.59
2022-11-19T10:51:33.666Z,100546.97
2022-11-19T10:54:04.356Z,100545.34
2022-11-19T10:56:40.266Z,100540.41
2022-11-19T10:59:12.375Z,100535.44
2022-11-19T11:01:45.087Z,100532.97
2022-11-19T11:04:26.209Z,100537.47
2022-11-19T11:06:58.495Z,100527.13
2022-11-19T11:09:37.027Z,100529.72
2022-11-19T11:12:40.752Z,100519.41
2022-11-19T11:15:15.734Z,100502.09
2022-11-19T11:17:44.641Z,100510.22
2022-11-19T11:20:14.120Z,100505.28
2022-11-19T11:22:40.880Z,100501.31
2022-11-19T11:25:27.226Z,100505.75
2022-11-19T11:28:17.783Z,100499.00
2022-11-19T11:31:00.953Z,100493.13
2022-11-19T11:33:32.604Z,100492.28
2022-11-19T11:36:03.437Z,100483.63
2022-11-19T11:38:30.957Z,100482.97
2022-11-19T11:41:35.300Z,100481.53
2022-11-19T11:44:02.516Z,100477.38
2022-11-19T11:46:51.180Z,100480.22
2022-11-19T11:49:43.277Z,100470.09
2022-11-19T11:52:09.872Z,100470.31
2022-11-19T11:54:37.515Z,100465.19
2022-11-19T11:57:25.162Z,100464.59
2022-11-19T11:59:52.234Z,100463.09
2022-11-19T12:02:21.250Z,100465.03
2022-11-19T12:04:50.094Z,100454.75
2022-11-19T12:07:51.574Z,100451.41
2022-11-19T12:10:26.717Z,100456.81
2022-11-19T12:13:44.407Z,100455.47
2022-11-19T12:16:26.583Z,100457.41
2022-11-19T12:19:24.721Z,100466.38
2022-11-19T12:22:00.555Z,100461.41
2022-11-19T12:24:30.133Z,100464.16
2022-11-19T12:27:08.494Z,100460.16
2022-11-19T12:29:38.049Z,100456.94
2022-11-19T12:32:19.680Z,100454.84
2022-11-19T12:34:55.092Z,100457.03
2022-11-19T12:37:49.337Z,100456.59
2022-11-19T12:40:42.407Z,100455.19
2022-11-19T12:43:34.091Z,100451.16
2022-11-19T12:46:25.149Z,100449.53
2022-11-19T12:49:09.423Z,100447.88
2022-11-19T12:51:44.335Z,100455.03
2022-11-19T12:54:27.858Z,100452.59
2022-11-19T12:57:19.187Z,100451.09
2022-11-19T13:00:18.815Z,100447.91
2022-11-19T13:03:12.370Z,100441.84
2022-11-19T13:06:02.738Z,100437.47
2022-11-19T13:08:49.847Z,100449.69
2022-11-19T13:11:36.717Z,100436.47
2022-11-19T13:14:11.338Z,100449.25
2022-11-19T13:16:38.012Z,100441.19
2022-11-19T13:19:20.208Z,100449.69
2022-11-19T13:21:55.984Z,100443.50
2022-11-19T13:24:35.236Z,100437.25
2022-11-19T13:27:05.390Z,100441.50
2022-11-19T13:29:54.261Z,100437.94
2022-11-19T13:32:44.234Z,100436.97
2022-11-19T13:35:18.582Z,100431.63
2022-11-19T13:37:58.273Z,100434.09
2022-11-19T13:40:37.268Z,100419.97
2022-11-19T13:43:32.072Z,100429.38
2022-11-19T13:46:16.540Z,100429.19
2022-11-19T13:48:54.710Z,100429.03
2022-11-19T13:51:39.155Z,100435.06
2022-11-19T13:54:08.243Z,100430.66
2022-11-19T13:56:40.425Z,100429.88
2022-11-19T13:59:08.543Z,100422.03
2022-11-19T14:01:55.906Z,100432.31
2022-11-19T14:04:32.692Z,100421.75
2022-11-19T14:06:59.302Z,100425.09
2022-11-19T14:09:46.115Z,100427.53
2022-11-19T14:12:34.640Z,100421.28
2022-11-19T14:15:46.464Z,100422.84
2022-11-19T14:18:43.327Z,100417.50
2022-11-19T14:21:44.262Z,100424.38
2022-11-19T14:24:45.051Z,100429.41
2022-11-19T14:27:20.891Z,100434.56
2022-11-19T14:29:47.348Z,100429.22
2022-11-19T14:32:13.772Z,100424.75
2022-11-19T14:39:53.955Z,100423.78
2022-11-19T14:42:21.912Z,100418.50
2022-11-19T14:45:04.077Z,100417.47
2022-11-19T14:47:43.349Z,100416.50
2022-11-19T14:50:26.008Z,100411.25
2022-11-19T14:52:56.094Z,100408.56
2022-11-19T14:55:26.062Z,100411.97
2022-11-19T14:58:02.411Z,100419.59
2022-11-19T15:00:28.996Z,100409.91
2022-11-19T15:02:56.784Z,100408.13
2022-11-19T15:05:31.299Z,100407.16
2022-11-19T15:08:43.141Z,100413.97
2022-11-19T15:11:14.421Z,100412.03
2022-11-19T15:13:48.999Z,100411.00
2022-11-19T15:16:27.769Z,100411.75
2022-11-19T15:19:00.326Z,100406.31
2022-11-19T15:21:51.132Z,100401.78
2022-11-19T15:24:27.213Z,100402.44
2022-11-19T15:26:53.861Z,100404.00
2022-11-19T15:30:05.235Z,100397.88
2022-11-19T15:32:50.426Z,100402.97
2022-11-19T15:35:30.932Z,100395.09
2022-11-19T15:38:04.325Z,100389.75
2022-11-19T15:40:36.269Z,100378.38
2022-11-19T15:43:15.146Z,100375.69
2022-11-19T15:46:03.597Z,100371.22
2022-11-19T15:48:32.946Z,100369.38
2022-11-19T15:51:01.172Z,100375.25
2022-11-19T15:53:28.293Z,100369.97
2022-11-19T15:55:59.836Z,100377.72
2022-11-19T15:58:36.913Z,100379.19
2022-11-19T16:01:04.487Z,100379.97
2022-11-19T16:03:32.535Z,100381.53
2022-11-19T16:06:03.631Z,100383.22
2022-11-19T16:08:30.676Z,100377.88
2022-11-19T16:11:20.579Z,100376.97
2022-11-19T16:14:10.952Z,100371.63
2022-11-19T16:16:56.490Z,100371.63
2022-11-19T16:19:23.773Z,100382.03
2022-11-19T16:21:58.879Z,100374.25
2022-11-19T16:24:46.266Z,100371.63
2022-11-19T16:27:20.529Z,100377.69
2022-11-19T16:29:47.224Z,100376.84
2022-11-19T16:32:21.821Z,100376.00
2022-11-19T16:34:48.558Z,100376.84
2022-11-19T16:37:21.774Z,100375.94
2022-11-19T16:39:53.228Z,100380.25
2022-11-19T16:42:26.807Z,100378.47
2022-11-19T16:45:08.451Z,100374.97
2022-11-19T16:47:40.037Z,100367.03
2022-11-19T16:50:29.551Z,100364.31
2022-11-19T16:52:56.383Z,100372.06
2022-11-19T16:55:25.910Z,100370.22
2022-11-19T16:57:56.874Z,100366.63
2022-11-19T17:00:28.536Z,100367.44
2022-11-19T17:02:55.410Z,100360.47
2022-11-19T17:05:24.864Z,100362.09
2022-11-19T17:08:05.764Z,100366.31
2022-11-19T17:10:34.161Z,100364.56
2022-11-19T17:13:28.255Z,100357.63
2022-11-19T17:15:55.153Z,100363.72
2022-11-19T17:18:34.449Z,100365.53
2022-11-19T17:21:08.998Z,100369.84
2022-11-19T17:23:48.259Z,100370.72
2022-11-19T17:26:22.500Z,100364.50
2022-11-19T17:28:52.243Z,100367.97
2022-11-19T17:31:27.400Z,100363.59
2022-11-19T17:34:07.344Z,100363.59
2022-11-19T17:36:34.083Z,100365.22
2022-11-19T17:39:00.733Z,100361.78
2022-11-19T17:41:48.317Z,100362.69
2022-11-19T17:44:34.679Z,100373.91
2022-11-19T17:47:07.383Z,100366.97
2022-11-19T17:49:45.805Z,100368.72
2022-11-19T17:52:24.685Z,100376.53
2022-11-19T17:54:53.942Z,100375.63
2022-11-19T17:57:20.768Z,100366.84
2022-11-19T17:59:47.430Z,100373.69
2022-11-19T18:02:17.029Z,100374.56
2022-11-19T18:04:45.306Z,100367.56
2022-11-19T18:07:12.575Z,100370.28
2022-11-19T18:09:40.561Z,100370.28
2022-11-19T18:12:12.517Z,100371.16
2022-11-19T18:14:39.200Z,100370.28
2022-11-19T18:17:06.004Z,100365.06
2022-11-19T18:19:33.789Z,100372.78
2022-11-19T18:22:00.469Z,100366.72
2022-11-19T18:24:27.326Z,100356.22
2022-11-19T18:26:54.031Z,100364.91
2022-11-19T18:29:21.192Z,100364.91
2022-11-19T18:31:50.892Z,100368.34
2022-11-19T18:34:20.484Z,100373.69
2022-11-19T18:36:47.187Z,100368.41
2022-11-19T18:39:14.601Z,100361.50
2022-11-19T18:41:41.857Z,100364.19
2022-11-19T18:44:32.485Z,100372.88
2022-11-19T18:47:03.941Z,100363.34
2022-11-19T18:49:30.852Z,100371.22
2022-11-19T18:51:57.494Z,100366.97
2022-11-19T18:54:24.191Z,100369.50
2022-11-19T18:56:51.062Z,100363.41
2022-11-19T18:59:18.327Z,100361.63
2022-11-19T19:01:45.404Z,100361.72
2022-11-19T19:04:14.430Z,100362.53
2022-11-19T19:06:41.861Z,100359.78
2022-11-19T19:09:10.362Z,100368.34
2022-11-19T19:11:56.932Z,100368.91
2022-11-19T19:14:23.520Z,100361.69
2022-11-19T19:16:51.009Z,100365.78
2022-11-19T19:19:19.992Z,100372.44
2022-11-19T19:21:47.409Z,100358.25
2022-11-19T19:24:14.551Z,100365.91
2022-11-19T19:26:41.661Z,100364.03
2022-11-19T19:29:08.506Z,100369.88
2022-11-19T19:31:36.169Z,100373.16
2022-11-19T19:34:03.319Z,100373.81
2022-11-19T19:36:30.397Z,100375.44
2022-11-19T19:38:57.166Z,100388.28
2022-11-19T19:41:26.104Z,100393.28
2022-11-19T19:43:54.764Z,100388.84
2022-11-19T19:46:23.559Z,100383.47
2022-11-19T19:48:52.478Z,100386.00
2022-11-19T19:51:21.103Z,100388.50
2022-11-19T19:53:48.389Z,100389.22
2022-11-19T19:56:19.093Z,100391.75
2022-11-19T19:58:47.120Z,100389.00
2022-11-19T20:01:16.757Z,100388.94
2022-11-19T20:03:44.755Z,100387.06
2022-11-19T20:06:13.422Z,100383.41
2022-11-19T20:08:40.899Z,100382.44
2022-11-19T20:11:13.486Z,100378.84
2022-11-19T20:13:40.946Z,100391.69
2022-11-19T20:16:14.576Z,100386.34
2022-11-19T20:18:45.688Z,100394.84
2022-11-19T20:21:15.561Z,100388.75
2022-11-19T20:23:42.697Z,100395.56
2022-11-19T20:26:18.002Z,100386.72
2022-11-19T20:28:45.401Z,100396.03
2022-11-19T20:31:18.418Z,100400.19
2022-11-19T20:33:46.621Z,100393.13
2022-11-19T20:36:15.718Z,100398.25
2022-11-19T20:38:44.260Z,100393.78
2022-11-19T20:41:33.368Z,100398.06
2022-11-19T20:44:20.343Z,100396.28
2022-11-19T20:46:47.237Z,100394.50
2022-11-19T20:49:16.941Z,100401.41
2022-11-19T20:51:45.188Z,100390.13
2022-11-19T20:54:12.276Z,100390.03
2022-11-19T20:56:39.980Z,100384.84
2022-11-19T20:59:06.921Z,100389.13
2022-11-19T21:01:34.581Z,100390.03
2022-11-19T21:04:01.574Z,100388.16
2022-11-19T21:06:28.640Z,100377.69
2022-11-19T21:08:55.995Z,100377.69
2022-11-19T21:11:22.664Z,100385.41
2022-11-19T21:13:49.463Z,100380.94
2022-11-19T21:16:24.054Z,100378.25
2022-11-19T21:18:51.308Z,100375.59
2022-11-19T21:21:19.705Z,100371.09
2022-11-19T21:23:46.746Z,100375.41
2022-11-19T21:26:19.775Z,100370.03
2022-11-19T21:28:49.342Z,100366.47
2022-11-19T21:31:18.122Z,100364.69
2022-11-19T21:33:44.724Z,100360.41
2022-11-19T21:36:12.500Z,100357.63
2022-11-19T21:38:39.492Z,100350.66
2022-11-19T21:41:07.028Z,100355.78
2022-11-19T21:43:33.930Z,100360.06
2022-11-19T21:46:00.541Z,100358.25
2022-11-19T21:48:27.290Z,100351.28
2022-11-19T21:50:54.289Z,100348.63
2022-11-19T21:53:21.214Z,100346.03
2022-11-19T21:55:48.403Z,100348.63
2022-11-19T21:58:15.488Z,100339.84
2022-11-19T22:00:43.892Z,100343.28
2022-11-19T22:03:10.630Z,100341.47
2022-11-19T22:05:37.203Z,100338.88
2022-11-19T22:08:03.940Z,100336.28
2022-11-19T22:10:30.719Z,100332.69
2022-11-19T22:13:00.122Z,100334.41
2022-11-19T22:15:27.189Z,100330.94
2022-11-19T22:17:54.842Z,100331.72
2022-11-19T22:20:21.818Z,100321.28
2022-11-19T22:22:48.420Z,100323.78
2022-11-19T22:25:15.319Z,100314.31
2022-11-19T22:27:42.034Z,100318.59
2022-11-19T22:30:10.055Z,100325.41
2022-11-19T22:32:37.038Z,100331.28
2022-11-19T22:35:04.911Z,100331.22
2022-11-19T22:37:31.980Z,100331.97
2022-11-19T22:39:58.646Z,100327.56
2022-11-19T22:42:25.365Z,100324.97
2022-11-19T22:44:52.373Z,100332.75
2022-11-19T22:47:19.070Z,100327.47
2022-11-19T22:49:45.647Z,100333.50
2022-11-19T22:52:14.570Z,100334.47
2022-11-19T22:54:41.967Z,100339.00
2022-11-19T22:57:09.698Z,100335.00
2022-11-19T22:59:36.760Z,100341.56
2022-11-19T23:02:03.827Z,100347.31
2022-11-19T23:04:30.484Z,100340.16
2022-11-19T23:06:57.238Z,100338.13
2022-11-19T23:09:24.239Z,100333.41
2022-11-19T23:12:09.833Z,100334.69
2022-11-19T23:14:36.655Z,100333.41
2022-11-19T23:17:04.430Z,100336.31
2022-11-19T23:19:31.204Z,100335.66
2022-11-19T23:21:57.877Z,100334.13
2022-11-19T23:24:24.499Z,100325.69
2022-11-19T23:26:51.103Z,100325.81
2022-11-19T23:29:17.880Z,100317.31
2022-11-19T23:31:44.728Z,100320.06
2022-11-19T23:34:11.840Z,100310.56
2022-11-19T23:36:40.486Z,100311.28
2022-11-19T23:39:12.701Z,100320.88
2022-11-19T23:41:39.524Z,100314.72
2022-11-19T23:44:06.210Z,100310.41
2022-11-19T23:46:34.897Z,100306.19
2022-11-19T23:49:03.187Z,100307.31
2022-11-19T23:51:32.548Z,100313.69
2022-11-19T23:53:59.313Z,100312.16
2022-11-19T23:56:26.895Z,100315.16
2022-11-19T23:58:53.835Z,100302.28
